createdAt,value
2019-03-29T00:00:38.260Z,166.00
2019-03-29T00:01:40.926Z,176.75
2019-03-29T00:02:43.504Z,171.00
2019-03-29T00:03:45.336Z,177.00
2019-03-29T00:04:47.246Z,172.50
2019-03-29T00:05:49.307Z,190.25
2019-03-29T00:06:51.564Z,189.50
2019-03-29T00:07:53.566Z,182.75
2019-03-29T00:08:55.742Z,202.00
2019-03-29T00:09:57.850Z,216.50
2019-03-29T00:10:59.999Z,232.75
2019-03-29T00:12:02.123Z,169.25
2019-03-29T00:13:05.040Z,175.75
2019-03-29T00:14:07.390Z,193.50
2019-03-29T00:15:09.952Z,193.50
2019-03-29T00:16:11.966Z,186.50
2019-03-29T00:17:14.163Z,205.00
2019-03-29T00:18:16.091Z,184.00
2019-03-29T00:19:18.253Z,186.25
2019-03-29T00:20:20.436Z,322.50
2019-03-29T00:21:22.512Z,329.75
2019-03-29T00:22:24.758Z,384.75
2019-03-29T00:23:27.209Z,347.75
2019-03-29T00:24:29.297Z,273.75
2019-03-29T00:25:31.468Z,243.25
2019-03-29T00:26:33.559Z,191.25
2019-03-29T00:27:35.763Z,204.75
2019-03-29T00:28:37.948Z,198.50
2019-03-29T00:29:40.451Z,180.00
2019-03-29T00:30:42.259Z,177.25
2019-03-29T00:31:44.591Z,183.00
2019-03-29T00:32:46.597Z,184.25
2019-03-29T00:33:49.383Z,169.75
2019-03-29T00:34:52.301Z,168.00
2019-03-29T00:35:54.473Z,161.00
2019-03-29T00:36:56.307Z,150.60
2019-03-29T00:37:58.735Z,152.60
2019-03-29T00:39:01.167Z,148.00
2019-03-29T00:40:06.320Z,148.80
2019-03-29T00:41:09.161Z,143.60
2019-03-29T00:42:11.241Z,149.40
2019-03-29T00:43:13.036Z,152.20
2019-03-29T00:44:15.197Z,138.80
2019-03-29T00:45:18.988Z,146.60
2019-03-29T00:46:21.340Z,146.20
2019-03-29T00:47:23.600Z,147.60
2019-03-29T00:48:25.425Z,129.80
2019-03-29T00:49:28.549Z,135.00
2019-03-29T00:50:31.075Z,133.40
2019-03-29T00:51:33.064Z,126.40
2019-03-29T00:52:34.784Z,117.20
2019-03-29T00:53:36.761Z,133.60
2019-03-29T00:54:38.931Z,110.80
2019-03-29T00:55:41.157Z,115.80
2019-03-29T00:56:43.451Z,122.60
2019-03-29T00:57:45.181Z,120.80
2019-03-29T00:58:48.752Z,119.80
2019-03-29T00:59:50.862Z,107.80
2019-03-29T01:00:52.763Z,112.80
2019-03-29T01:01:54.918Z,110.40
2019-03-29T01:02:56.964Z,103.80
2019-03-29T01:03:58.641Z,106.60
2019-03-29T01:05:00.848Z,109.60
2019-03-29T01:06:04.357Z,113.00
2019-03-29T01:07:06.476Z,114.80
2019-03-29T01:08:10.448Z,119.00
2019-03-29T01:09:14.291Z,101.80
2019-03-29T01:10:16.490Z,104.00
2019-03-29T01:11:18.643Z,99.40
2019-03-29T01:12:20.843Z,95.20
2019-03-29T01:13:23.086Z,96.80
2019-03-29T01:14:25.318Z,104.20
2019-03-29T01:15:27.479Z,101.00
2019-03-29T01:16:30.004Z,96.20
2019-03-29T01:17:32.099Z,98.80
2019-03-29T01:18:33.803Z,93.20
2019-03-29T01:19:35.879Z,98.40
2019-03-29T01:20:39.213Z,100.40
2019-03-29T01:21:41.523Z,111.60
2019-03-29T01:22:43.856Z,100.60
2019-03-29T01:23:45.900Z,105.20
2019-03-29T01:24:47.697Z,91.20
2019-03-29T01:25:50.207Z,98.00
2019-03-29T01:26:53.093Z,90.60
2019-03-29T01:27:55.405Z,102.60
2019-03-29T01:28:57.389Z,99.20
2019-03-29T01:29:59.537Z,94.80
2019-03-29T01:31:01.358Z,89.80
2019-03-29T01:32:04.877Z,95.00
2019-03-29T01:33:06.935Z,96.00
2019-03-29T01:34:08.815Z,97.60
2019-03-29T01:35:11.566Z,94.80
2019-03-29T01:36:13.766Z,97.60
2019-03-29T01:37:15.951Z,91.60
2019-03-29T01:38:22.033Z,96.00
2019-03-29T01:39:21.700Z,97.80
2019-03-29T01:40:23.337Z,90.00
2019-03-29T01:41:26.261Z,96.40
2019-03-29T01:42:29.155Z,92.20
2019-03-29T01:43:31.339Z,98.60
2019-03-29T01:44:34.735Z,93.60
2019-03-29T01:45:36.884Z,93.00
2019-03-29T01:46:39.037Z,92.40
2019-03-29T01:47:41.207Z,93.00
2019-03-29T01:48:43.076Z,100.20
2019-03-29T01:49:45.193Z,95.60
2019-03-29T01:50:47.427Z,96.40
2019-03-29T01:51:49.386Z,99.60
2019-03-29T01:52:51.452Z,91.60
2019-03-29T01:53:53.683Z,91.20
2019-03-29T01:54:57.017Z,93.00
2019-03-29T01:55:59.588Z,89.00
2019-03-29T01:57:01.858Z,95.80
2019-03-29T01:58:04.872Z,92.00
2019-03-29T01:59:06.930Z,94.80
2019-03-29T02:00:09.508Z,101.00
2019-03-29T02:01:11.676Z,101.80
2019-03-29T02:02:13.831Z,93.60
2019-03-29T02:03:15.945Z,95.20
2019-03-29T02:04:18.526Z,95.00
2019-03-29T02:05:20.478Z,91.60
2019-03-29T02:06:22.482Z,91.20
2019-03-29T02:07:24.803Z,86.20
2019-03-29T02:08:35.583Z,98.80
2019-03-29T02:09:31.014Z,99.00
2019-03-29T02:10:33.590Z,92.00
2019-03-29T02:11:35.738Z,88.40
2019-03-29T02:12:37.894Z,95.20
2019-03-29T02:13:40.234Z,90.40
2019-03-29T02:14:42.362Z,91.60
2019-03-29T02:15:44.794Z,87.00
2019-03-29T02:16:47.030Z,87.20
2019-03-29T02:17:49.120Z,96.00
2019-03-29T02:18:50.901Z,88.60
2019-03-29T02:19:53.216Z,92.40
2019-03-29T02:20:56.560Z,89.60
2019-03-29T02:21:58.314Z,87.40
2019-03-29T02:23:00.400Z,89.40
2019-03-29T02:24:02.806Z,92.00
2019-03-29T02:25:06.724Z,88.40
2019-03-29T02:26:09.193Z,90.80
2019-03-29T02:27:11.291Z,89.00
2019-03-29T02:28:13.440Z,87.40
2019-03-29T02:29:15.911Z,84.00
2019-03-29T02:30:18.007Z,87.40
2019-03-29T02:31:20.384Z,85.00
2019-03-29T02:32:24.827Z,85.20
2019-03-29T02:33:27.372Z,89.60
2019-03-29T02:34:29.207Z,78.00
2019-03-29T02:35:31.325Z,87.60
2019-03-29T02:36:34.667Z,82.80
2019-03-29T02:37:37.305Z,86.40
2019-03-29T02:38:54.125Z,86.80
2019-03-29T02:39:44.048Z,84.60
2019-03-29T02:40:45.843Z,85.40
2019-03-29T02:41:48.009Z,89.40
2019-03-29T02:42:50.107Z,83.80
2019-03-29T02:43:52.237Z,84.40
2019-03-29T02:44:54.603Z,84.00
2019-03-29T02:45:57.552Z,80.80
2019-03-29T02:46:59.999Z,84.20
2019-03-29T02:48:02.155Z,80.20
2019-03-29T02:49:05.085Z,84.20
2019-03-29T02:50:09.147Z,81.60
2019-03-29T02:51:11.588Z,86.00
2019-03-29T02:52:13.788Z,83.40
2019-03-29T02:53:16.201Z,83.80
2019-03-29T02:54:18.083Z,80.00
2019-03-29T02:55:19.805Z,82.20
2019-03-29T02:56:21.878Z,81.80
2019-03-29T02:57:24.015Z,81.60
2019-03-29T02:58:26.310Z,86.60
2019-03-29T02:59:28.389Z,85.80
2019-03-29T03:00:30.408Z,80.60
2019-03-29T03:01:32.686Z,84.80
2019-03-29T03:02:34.973Z,80.40
2019-03-29T03:03:37.008Z,80.60
2019-03-29T03:04:39.073Z,84.40
2019-03-29T03:05:41.308Z,83.40
2019-03-29T03:06:43.171Z,85.20
2019-03-29T03:07:45.446Z,92.00
2019-03-29T03:08:47.701Z,87.80
2019-03-29T03:09:51.051Z,85.80
2019-03-29T03:10:53.199Z,81.40
2019-03-29T03:11:55.263Z,87.60
2019-03-29T03:12:58.666Z,87.20
2019-03-29T03:14:01.041Z,86.20
2019-03-29T03:15:07.698Z,86.00
2019-03-29T03:16:09.510Z,84.20
2019-03-29T03:17:13.237Z,77.60
2019-03-29T03:18:15.485Z,83.00
2019-03-29T03:19:17.578Z,83.00
2019-03-29T03:20:19.784Z,82.60
2019-03-29T03:21:21.519Z,85.80
2019-03-29T03:22:23.678Z,85.20
2019-03-29T03:23:26.333Z,80.40
2019-03-29T03:24:27.995Z,82.00
2019-03-29T03:25:31.006Z,85.80
2019-03-29T03:26:33.513Z,82.60
2019-03-29T03:27:35.742Z,83.60
2019-03-29T03:28:38.419Z,84.00
2019-03-29T03:29:40.489Z,79.20
2019-03-29T03:30:42.293Z,81.40
2019-03-29T03:31:44.611Z,78.60
2019-03-29T03:32:47.198Z,76.80
2019-03-29T03:33:49.296Z,81.60
2019-03-29T03:34:51.497Z,83.60
2019-03-29T03:35:53.783Z,74.60
2019-03-29T03:36:56.123Z,81.00
2019-03-29T03:37:58.760Z,78.80
2019-03-29T03:39:04.038Z,77.80
2019-03-29T03:40:07.677Z,75.60
2019-03-29T03:41:09.766Z,79.00
2019-03-29T03:42:12.814Z,81.60
2019-03-29T03:43:14.802Z,74.80
2019-03-29T03:44:17.063Z,78.00
2019-03-29T03:45:19.266Z,81.00
2019-03-29T03:46:22.301Z,78.00
2019-03-29T03:47:24.342Z,77.80
2019-03-29T03:48:26.383Z,79.20
2019-03-29T03:49:28.136Z,76.00
2019-03-29T03:50:39.005Z,77.80
2019-03-29T03:51:42.601Z,77.20
2019-03-29T03:52:44.650Z,76.20
2019-03-29T03:53:46.989Z,78.20
2019-03-29T03:54:48.985Z,78.00
2019-03-29T03:55:52.246Z,78.60
2019-03-29T03:56:55.142Z,76.60
2019-03-29T03:57:58.639Z,78.40
2019-03-29T03:59:01.359Z,75.60
2019-03-29T04:00:07.217Z,75.80
2019-03-29T04:01:09.268Z,80.60
2019-03-29T04:02:11.323Z,73.80
2019-03-29T04:03:13.409Z,84.00
2019-03-29T04:04:15.347Z,105.00
2019-03-29T04:05:17.447Z,114.80
2019-03-29T04:06:19.507Z,103.00
2019-03-29T04:07:21.628Z,94.40
2019-03-29T04:08:24.467Z,102.80
2019-03-29T04:09:26.835Z,91.20
2019-03-29T04:10:28.499Z,90.60
2019-03-29T04:11:30.788Z,94.40
2019-03-29T04:12:32.904Z,93.40
2019-03-29T04:13:34.973Z,83.40
2019-03-29T04:14:37.109Z,92.00
2019-03-29T04:15:38.884Z,95.80
2019-03-29T04:16:41.037Z,90.60
2019-03-29T04:17:43.137Z,91.20
2019-03-29T04:18:46.125Z,100.20
2019-03-29T04:19:48.345Z,95.20
2019-03-29T04:20:50.983Z,89.00
2019-03-29T04:21:53.347Z,82.20
2019-03-29T04:22:55.307Z,91.20
2019-03-29T04:23:57.604Z,84.20
2019-03-29T04:24:59.617Z,79.20
2019-03-29T04:26:01.917Z,86.40
2019-03-29T04:27:04.021Z,87.20
2019-03-29T04:28:06.305Z,78.40
2019-03-29T04:29:08.577Z,86.40
2019-03-29T04:30:10.955Z,78.20
2019-03-29T04:31:15.532Z,83.00
2019-03-29T04:32:17.624Z,79.20
2019-03-29T04:33:19.833Z,85.40
2019-03-29T04:34:21.809Z,77.60
2019-03-29T04:35:24.773Z,89.00
2019-03-29T04:36:26.648Z,89.20
2019-03-29T04:37:30.750Z,82.80
2019-03-29T04:38:33.582Z,106.75
2019-03-29T04:39:35.750Z,80.60
2019-03-29T04:40:37.735Z,87.20
2019-03-29T04:41:39.870Z,85.20
2019-03-29T04:42:42.512Z,87.00
2019-03-29T04:43:44.714Z,86.20
2019-03-29T04:44:46.742Z,87.40
2019-03-29T04:45:48.552Z,86.80
2019-03-29T04:46:50.973Z,85.60
2019-03-29T04:47:52.971Z,84.40
2019-03-29T04:48:55.148Z,86.20
2019-03-29T04:49:57.530Z,82.40
2019-03-29T04:50:59.698Z,83.20
2019-03-29T04:52:01.404Z,83.20
2019-03-29T04:53:03.942Z,83.60
2019-03-29T04:54:05.945Z,84.00
2019-03-29T04:55:09.270Z,78.00
2019-03-29T04:56:11.652Z,81.00
2019-03-29T04:57:13.808Z,77.80
2019-03-29T04:58:17.366Z,84.80
2019-03-29T04:59:19.529Z,89.00
2019-03-29T05:00:21.538Z,93.60
2019-03-29T05:01:23.643Z,98.80
2019-03-29T05:02:25.869Z,85.80
2019-03-29T05:03:28.149Z,103.20
2019-03-29T05:04:30.117Z,82.80
2019-03-29T05:05:32.248Z,77.20
2019-03-29T05:06:33.998Z,79.40
2019-03-29T05:07:37.243Z,76.00
2019-03-29T05:08:39.578Z,71.60
2019-03-29T05:09:42.090Z,78.20
2019-03-29T05:10:44.209Z,75.20
2019-03-29T05:11:46.414Z,75.20
2019-03-29T05:12:48.084Z,80.40
2019-03-29T05:13:50.253Z,76.60
2019-03-29T05:14:52.323Z,69.80
2019-03-29T05:15:54.151Z,72.80
2019-03-29T05:16:57.020Z,72.80
2019-03-29T05:17:59.093Z,70.60
2019-03-29T05:19:01.142Z,75.20
2019-03-29T05:20:05.496Z,79.00
2019-03-29T05:21:07.485Z,77.80
2019-03-29T05:22:09.258Z,75.80
2019-03-29T05:23:11.260Z,71.20
2019-03-29T05:24:13.317Z,73.40
2019-03-29T05:25:15.163Z,70.40
2019-03-29T05:26:17.270Z,74.00
2019-03-29T05:27:18.985Z,75.40
2019-03-29T05:28:21.203Z,76.80
2019-03-29T05:29:23.399Z,70.60
2019-03-29T05:30:25.119Z,70.80
2019-03-29T05:31:27.112Z,72.00
2019-03-29T05:32:29.226Z,75.40
2019-03-29T05:33:33.068Z,69.20
2019-03-29T05:34:35.210Z,69.00
2019-03-29T05:35:37.410Z,68.00
2019-03-29T05:36:41.314Z,69.60
2019-03-29T05:37:43.522Z,70.40
2019-03-29T05:38:46.810Z,72.20
2019-03-29T05:39:48.800Z,73.20
2019-03-29T05:40:50.887Z,71.00
2019-03-29T05:41:53.124Z,70.40
2019-03-29T05:42:55.098Z,71.80
2019-03-29T05:43:57.214Z,73.00
2019-03-29T05:44:59.434Z,68.80
2019-03-29T05:46:01.116Z,68.80
2019-03-29T05:47:03.258Z,65.40
2019-03-29T05:48:05.430Z,70.20
2019-03-29T05:49:09.310Z,73.80
2019-03-29T05:50:11.820Z,72.20
2019-03-29T05:51:13.670Z,71.40
2019-03-29T05:52:15.426Z,65.60
2019-03-29T05:53:17.545Z,68.80
2019-03-29T05:54:19.729Z,67.00
2019-03-29T05:55:32.050Z,63.00
2019-03-29T05:56:25.434Z,63.80
2019-03-29T05:57:27.177Z,69.60
2019-03-29T05:58:29.447Z,70.20
2019-03-29T05:59:31.873Z,69.60
2019-03-29T06:00:33.839Z,69.80
2019-03-29T06:01:35.706Z,70.20
2019-03-29T06:02:37.875Z,68.20
2019-03-29T06:03:39.951Z,69.20
2019-03-29T06:04:42.071Z,68.20
2019-03-29T06:05:44.199Z,71.80
2019-03-29T06:06:46.186Z,68.00
2019-03-29T06:07:48.348Z,69.20
2019-03-29T06:08:50.763Z,68.40
2019-03-29T06:09:52.745Z,69.80
2019-03-29T06:10:54.719Z,63.80
2019-03-29T06:11:57.075Z,70.00
2019-03-29T06:12:59.909Z,71.40
2019-03-29T06:14:04.049Z,67.60
2019-03-29T06:15:06.642Z,70.80
2019-03-29T06:16:08.742Z,69.20
2019-03-29T06:17:10.756Z,71.00
2019-03-29T06:18:13.813Z,63.80
2019-03-29T06:19:16.122Z,68.40
2019-03-29T06:20:18.295Z,68.00
2019-03-29T06:21:19.995Z,71.20
2019-03-29T06:22:21.802Z,70.00
2019-03-29T06:23:23.963Z,67.60
2019-03-29T06:24:25.985Z,69.00
2019-03-29T06:25:28.147Z,68.60
2019-03-29T06:26:30.339Z,69.60
2019-03-29T06:27:32.357Z,66.40
2019-03-29T06:28:34.260Z,70.00
2019-03-29T06:29:36.280Z,69.80
2019-03-29T06:30:39.506Z,73.80
2019-03-29T06:31:43.812Z,67.20
2019-03-29T06:32:45.938Z,72.80
2019-03-29T06:33:47.708Z,72.80
2019-03-29T06:34:49.919Z,72.20
2019-03-29T06:35:55.156Z,68.20
2019-03-29T06:36:58.128Z,76.80
2019-03-29T06:38:02.412Z,70.40
2019-03-29T06:39:05.601Z,72.00
2019-03-29T06:40:13.181Z,72.20
2019-03-29T06:41:15.150Z,66.60
2019-03-29T06:42:16.842Z,67.00
2019-03-29T06:43:18.558Z,66.80
2019-03-29T06:44:20.749Z,69.00
2019-03-29T06:45:22.888Z,71.60
2019-03-29T06:46:24.990Z,69.60
2019-03-29T06:47:27.071Z,67.40
2019-03-29T06:48:29.153Z,73.40
2019-03-29T06:49:31.139Z,70.00
2019-03-29T06:50:33.607Z,70.20
2019-03-29T06:51:36.013Z,69.20
2019-03-29T06:52:38.255Z,71.40
2019-03-29T06:53:40.743Z,68.60
2019-03-29T06:54:42.954Z,69.00
2019-03-29T06:55:45.027Z,67.80
2019-03-29T06:56:47.123Z,68.80
2019-03-29T06:57:48.992Z,68.20
2019-03-29T06:58:51.225Z,65.00
2019-03-29T06:59:53.351Z,66.60
2019-03-29T07:00:55.543Z,68.20
2019-03-29T07:01:57.656Z,68.40
2019-03-29T07:02:59.920Z,68.80
2019-03-29T07:04:01.590Z,65.40
2019-03-29T07:05:05.273Z,65.60
2019-03-29T07:06:07.169Z,70.80
2019-03-29T07:07:10.571Z,68.40
2019-03-29T07:08:12.711Z,70.00
2019-03-29T07:09:14.870Z,64.00
2019-03-29T07:10:16.531Z,62.00
2019-03-29T07:11:18.901Z,69.80
2019-03-29T07:12:21.926Z,68.60
2019-03-29T07:13:24.098Z,68.80
2019-03-29T07:14:26.190Z,65.20
2019-03-29T07:15:28.294Z,64.00
2019-03-29T07:16:30.524Z,63.20
2019-03-29T07:17:33.306Z,64.40
2019-03-29T07:18:35.253Z,64.80
2019-03-29T07:19:37.212Z,68.40
2019-03-29T07:20:39.981Z,66.20
2019-03-29T07:21:41.985Z,68.60
2019-03-29T07:22:44.460Z,64.00
2019-03-29T07:23:46.599Z,69.20
2019-03-29T07:24:48.430Z,68.40
2019-03-29T07:25:50.816Z,69.00
2019-03-29T07:26:52.812Z,66.80
2019-03-29T07:27:56.256Z,66.40
2019-03-29T07:28:59.974Z,69.60
2019-03-29T07:30:04.618Z,66.20
2019-03-29T07:31:08.029Z,65.60
2019-03-29T07:32:11.312Z,62.20
2019-03-29T07:33:13.432Z,66.00
2019-03-29T07:34:15.229Z,68.60
2019-03-29T07:35:17.406Z,66.60
2019-03-29T07:36:19.867Z,62.40
2019-03-29T07:37:22.211Z,63.00
2019-03-29T07:38:24.167Z,69.20
2019-03-29T07:39:26.360Z,67.80
2019-03-29T07:40:28.576Z,69.60
2019-03-29T07:41:32.402Z,72.00
2019-03-29T07:42:34.680Z,70.00
2019-03-29T07:43:36.867Z,64.40
2019-03-29T07:44:38.869Z,63.40
2019-03-29T07:45:40.653Z,62.20
2019-03-29T07:46:42.302Z,63.60
2019-03-29T07:47:44.359Z,66.00
2019-03-29T07:48:46.507Z,63.20
2019-03-29T07:49:48.243Z,60.80
2019-03-29T07:50:50.345Z,60.60
2019-03-29T07:51:52.327Z,67.60
2019-03-29T07:52:54.352Z,59.40
2019-03-29T07:53:56.683Z,62.20
2019-03-29T07:54:58.637Z,65.60
2019-03-29T07:56:00.770Z,61.40
2019-03-29T07:57:02.866Z,61.40
2019-03-29T07:58:04.712Z,66.20
2019-03-29T07:59:06.918Z,65.00
2019-03-29T08:00:09.569Z,61.80
2019-03-29T08:01:11.389Z,62.00
2019-03-29T08:02:13.597Z,66.40
2019-03-29T08:03:15.405Z,64.80
2019-03-29T08:04:17.220Z,61.80
2019-03-29T08:05:19.209Z,62.60
2019-03-29T08:06:21.325Z,65.40
2019-03-29T08:07:27.517Z,64.80
2019-03-29T08:08:32.315Z,65.00
2019-03-29T08:09:31.516Z,59.60
2019-03-29T08:10:33.776Z,63.20
2019-03-29T08:11:46.141Z,58.40
2019-03-29T08:12:41.382Z,59.40
2019-03-29T08:13:43.524Z,57.00
2019-03-29T08:14:45.641Z,59.60
2019-03-29T08:15:47.473Z,57.40
2019-03-29T08:16:49.570Z,54.80
2019-03-29T08:17:53.183Z,58.00
2019-03-29T08:18:54.986Z,59.60
2019-03-29T08:20:24.503Z,54.40
2019-03-29T08:21:01.330Z,53.20
2019-03-29T08:22:03.410Z,55.00
2019-03-29T08:23:05.674Z,58.20
2019-03-29T08:24:07.814Z,60.80
2019-03-29T08:25:09.714Z,57.80
2019-03-29T08:26:12.074Z,55.00
2019-03-29T08:27:13.891Z,59.00
2019-03-29T08:28:16.087Z,56.60
2019-03-29T08:29:18.090Z,58.00
2019-03-29T08:30:20.068Z,54.60
2019-03-29T08:31:22.062Z,50.80
2019-03-29T08:32:24.677Z,58.20
2019-03-29T08:33:26.629Z,61.40
2019-03-29T08:34:29.451Z,53.80
2019-03-29T08:35:31.529Z,53.60
2019-03-29T08:36:33.656Z,55.00
2019-03-29T08:37:36.821Z,51.00
2019-03-29T08:38:38.953Z,54.40
2019-03-29T08:39:40.666Z,52.80
2019-03-29T08:40:45.221Z,48.80
2019-03-29T08:41:59.518Z,42.60
2019-03-29T08:42:50.314Z,48.20
2019-03-29T08:43:52.512Z,41.20
2019-03-29T08:44:54.581Z,44.60
2019-03-29T08:45:57.706Z,48.00
2019-03-29T08:47:00.481Z,40.20
2019-03-29T08:48:02.831Z,46.20
2019-03-29T08:49:04.925Z,36.20
2019-03-29T08:50:07.531Z,40.80
2019-03-29T08:51:10.576Z,49.20
2019-03-29T08:52:12.945Z,42.40
2019-03-29T08:53:14.981Z,45.80
2019-03-29T08:54:16.690Z,45.60
2019-03-29T08:55:18.759Z,45.60
2019-03-29T08:56:21.042Z,43.20
2019-03-29T08:57:22.835Z,45.40
2019-03-29T08:58:24.988Z,39.40
2019-03-29T08:59:27.412Z,36.00
2019-03-29T09:00:30.711Z,28.40
2019-03-29T09:01:33.124Z,33.20
2019-03-29T09:02:35.783Z,34.40
2019-03-29T09:03:38.030Z,32.40
2019-03-29T09:04:40.478Z,37.40
2019-03-29T09:05:42.651Z,36.40
2019-03-29T09:06:53.348Z,35.00
2019-03-29T09:07:49.679Z,47.40
2019-03-29T09:08:52.042Z,33.60
2019-03-29T09:09:54.140Z,38.60
2019-03-29T09:10:57.098Z,38.60
2019-03-29T09:12:13.399Z,35.60
2019-03-29T09:13:04.630Z,38.80
2019-03-29T09:14:07.278Z,39.80
2019-03-29T09:15:09.260Z,42.40
2019-03-29T09:16:11.002Z,34.80
2019-03-29T09:17:13.244Z,42.40
2019-03-29T09:18:15.026Z,36.80
2019-03-29T09:19:16.934Z,35.80
2019-03-29T09:20:19.079Z,32.00
2019-03-29T09:21:21.420Z,33.60
2019-03-29T09:22:23.555Z,34.80
2019-03-29T09:23:25.775Z,38.60
2019-03-29T09:24:27.906Z,42.80
2019-03-29T09:25:30.124Z,33.80
2019-03-29T09:26:32.118Z,33.20
2019-03-29T09:27:34.335Z,30.40
2019-03-29T09:28:36.277Z,29.80
2019-03-29T09:29:38.311Z,36.00
2019-03-29T09:30:39.966Z,28.60
2019-03-29T09:31:42.155Z,41.00
2019-03-29T09:32:44.741Z,38.40
2019-03-29T09:33:48.174Z,49.20
2019-03-29T09:34:50.319Z,34.60
2019-03-29T09:35:53.705Z,29.00
2019-03-29T09:36:59.910Z,34.60
2019-03-29T09:38:01.665Z,31.80
2019-03-29T09:39:05.625Z,30.80
2019-03-29T09:40:08.714Z,28.40
2019-03-29T09:41:11.029Z,33.80
2019-03-29T09:42:13.191Z,53.60
2019-03-29T09:43:15.517Z,39.40
2019-03-29T09:44:17.511Z,43.20
2019-03-29T09:45:20.795Z,33.40
2019-03-29T09:46:23.343Z,28.60
2019-03-29T09:47:25.475Z,29.80
2019-03-29T09:48:27.716Z,26.60
2019-03-29T09:49:30.011Z,28.80
2019-03-29T09:50:32.396Z,24.40
2019-03-29T09:51:36.179Z,29.80
2019-03-29T09:52:38.426Z,23.20
2019-03-29T09:53:41.344Z,26.20
2019-03-29T09:54:43.494Z,15.60
2019-03-29T09:55:46.244Z,20.40
2019-03-29T09:56:48.654Z,22.60
2019-03-29T09:57:50.754Z,19.40
2019-03-29T09:58:52.954Z,21.20
2019-03-29T09:59:55.172Z,16.40
2019-03-29T10:00:57.319Z,9.40
2019-03-29T10:01:59.543Z,9.60
2019-03-29T10:03:01.614Z,13.60
2019-03-29T10:04:03.595Z,12.60
2019-03-29T10:05:06.296Z,11.20
2019-03-29T10:06:08.558Z,11.60
2019-03-29T10:07:10.710Z,13.80
2019-03-29T10:08:12.761Z,18.60
2019-03-29T10:09:14.486Z,14.40
2019-03-29T10:10:16.737Z,16.60
2019-03-29T10:11:21.929Z,16.40
2019-03-29T10:12:22.990Z,15.00
2019-03-29T10:13:25.043Z,18.40
2019-03-29T10:14:27.380Z,14.20
2019-03-29T10:15:29.173Z,16.20
2019-03-29T10:16:31.352Z,18.40
2019-03-29T10:17:33.443Z,25.60
2019-03-29T10:18:35.536Z,20.80
2019-03-29T10:19:37.211Z,16.20
2019-03-29T10:20:39.402Z,6.40
2019-03-29T10:21:41.585Z,15.00
2019-03-29T10:22:43.775Z,20.00
2019-03-29T10:23:45.913Z,15.20
2019-03-29T10:24:47.716Z,22.60
2019-03-29T10:25:49.844Z,20.40
2019-03-29T10:26:51.967Z,20.00
2019-03-29T10:27:54.949Z,19.80
2019-03-29T10:28:57.096Z,19.40
2019-03-29T10:29:59.412Z,25.00
2019-03-29T10:31:01.058Z,19.00
2019-03-29T10:32:08.977Z,21.80
2019-03-29T10:33:09.001Z,11.40
2019-03-29T10:34:10.707Z,18.60
2019-03-29T10:35:12.991Z,16.60
2019-03-29T10:36:14.987Z,17.00
2019-03-29T10:37:16.973Z,20.20
2019-03-29T10:38:19.160Z,19.80
2019-03-29T10:39:20.913Z,14.80
2019-03-29T10:40:23.121Z,23.80
2019-03-29T10:41:25.374Z,20.00
2019-03-29T10:42:27.439Z,26.80
2019-03-29T10:43:29.631Z,21.60
2019-03-29T10:44:31.855Z,22.20
2019-03-29T10:45:39.470Z,14.60
2019-03-29T10:46:38.630Z,20.60
2019-03-29T10:47:43.949Z,18.40
2019-03-29T10:48:44.877Z,21.80
2019-03-29T10:49:46.682Z,20.20
2019-03-29T10:50:49.202Z,25.60
2019-03-29T10:51:51.078Z,22.40
2019-03-29T10:52:53.453Z,23.00
2019-03-29T10:53:56.942Z,23.20
2019-03-29T10:54:58.641Z,31.20
2019-03-29T10:56:00.766Z,24.20
2019-03-29T10:57:03.247Z,23.60
2019-03-29T10:58:05.031Z,23.40
2019-03-29T10:59:07.548Z,24.60
2019-03-29T11:00:12.764Z,26.60
2019-03-29T11:01:15.023Z,25.00
2019-03-29T11:02:17.196Z,21.60
2019-03-29T11:03:19.012Z,16.40
2019-03-29T11:04:21.244Z,12.60
2019-03-29T11:05:23.752Z,24.80
2019-03-29T11:06:26.636Z,30.60
2019-03-29T11:07:29.733Z,21.00
2019-03-29T11:08:32.297Z,25.20
2019-03-29T11:09:36.986Z,24.60
2019-03-29T11:10:39.020Z,19.00
2019-03-29T11:11:40.984Z,21.20
2019-03-29T11:12:43.014Z,21.40
2019-03-29T11:13:45.767Z,27.00
2019-03-29T11:14:47.846Z,13.60
2019-03-29T11:15:49.528Z,20.60
2019-03-29T11:16:52.560Z,18.00
2019-03-29T11:17:54.706Z,17.40
2019-03-29T11:18:56.898Z,22.60
2019-03-29T11:19:59.133Z,19.20
2019-03-29T11:21:01.291Z,12.60
2019-03-29T11:22:03.362Z,21.00
2019-03-29T11:23:06.563Z,10.80
2019-03-29T11:24:09.306Z,21.40
2019-03-29T11:25:11.784Z,18.40
2019-03-29T11:26:13.968Z,20.60
2019-03-29T11:27:15.965Z,17.60
2019-03-29T11:28:18.256Z,18.60
2019-03-29T11:29:20.621Z,18.80
2019-03-29T11:30:22.819Z,18.40
2019-03-29T11:31:25.626Z,18.80
2019-03-29T11:32:27.770Z,25.40
2019-03-29T11:33:30.251Z,28.80
2019-03-29T11:34:32.376Z,26.80
2019-03-29T11:35:34.770Z,25.00
2019-03-29T11:36:36.943Z,25.60
2019-03-29T11:37:39.181Z,16.20
2019-03-29T11:38:41.340Z,18.40
2019-03-29T11:39:43.287Z,21.40
2019-03-29T11:40:45.558Z,23.00
2019-03-29T11:41:47.580Z,26.20
2019-03-29T11:42:51.372Z,21.80
2019-03-29T11:43:53.663Z,13.60
2019-03-29T11:44:55.699Z,14.20
2019-03-29T11:45:58.776Z,20.20
2019-03-29T11:47:01.073Z,22.00
2019-03-29T11:48:08.889Z,26.60
2019-03-29T11:49:07.703Z,23.40
2019-03-29T11:50:10.181Z,21.00
2019-03-29T11:51:19.344Z,21.60
2019-03-29T11:52:16.368Z,21.80
2019-03-29T11:53:18.481Z,24.00
2019-03-29T11:54:20.754Z,20.00
2019-03-29T11:55:23.002Z,23.40
2019-03-29T11:56:25.440Z,20.60
2019-03-29T11:57:27.718Z,15.00
2019-03-29T11:58:30.012Z,12.00
2019-03-29T11:59:32.139Z,6.80
2019-03-29T12:00:36.061Z,12.00
2019-03-29T12:01:38.154Z,15.20
2019-03-29T12:02:40.899Z,18.20
2019-03-29T12:03:44.152Z,12.00
2019-03-29T12:04:46.025Z,18.00
2019-03-29T12:05:48.887Z,22.20
2019-03-29T12:06:50.881Z,20.60
2019-03-29T12:07:54.552Z,23.20
2019-03-29T12:08:57.252Z,21.60
2019-03-29T12:10:00.390Z,19.00
2019-03-29T12:11:04.022Z,20.00
2019-03-29T12:12:06.609Z,14.00
2019-03-29T12:13:09.363Z,21.40
2019-03-29T12:14:11.647Z,18.60
2019-03-29T12:15:14.490Z,18.00
2019-03-29T12:16:16.712Z,23.00
2019-03-29T12:17:19.197Z,27.20
2019-03-29T12:18:21.621Z,24.80
2019-03-29T12:19:23.491Z,28.60
2019-03-29T12:20:25.892Z,31.00
2019-03-29T12:21:28.205Z,24.80
2019-03-29T12:22:32.309Z,34.60
2019-03-29T12:23:34.317Z,31.80
2019-03-29T12:24:36.362Z,24.40
2019-03-29T12:25:38.518Z,18.00
2019-03-29T12:26:40.731Z,34.20
2019-03-29T12:27:43.726Z,27.60
2019-03-29T12:28:45.931Z,28.80
2019-03-29T12:29:48.308Z,22.20
2019-03-29T12:30:50.101Z,25.60
2019-03-29T12:31:52.161Z,24.40
2019-03-29T12:32:55.526Z,29.00
2019-03-29T12:33:57.515Z,25.20
2019-03-29T12:34:59.564Z,29.60
2019-03-29T12:36:01.828Z,23.20
2019-03-29T12:37:03.675Z,20.00
2019-03-29T12:38:05.844Z,22.80
2019-03-29T12:39:07.697Z,24.20
2019-03-29T12:40:10.497Z,31.40
2019-03-29T12:41:12.737Z,36.80
2019-03-29T12:42:14.814Z,29.20
2019-03-29T12:43:16.583Z,32.20
2019-03-29T12:44:19.106Z,29.60
2019-03-29T12:45:20.950Z,30.60
2019-03-29T12:46:23.215Z,36.60
2019-03-29T12:47:25.434Z,27.60
2019-03-29T12:48:27.472Z,19.60
2019-03-29T12:49:29.181Z,21.80
2019-03-29T12:50:31.498Z,28.40
2019-03-29T12:51:33.614Z,20.20
2019-03-29T12:52:35.490Z,23.20
2019-03-29T12:53:37.640Z,27.40
2019-03-29T12:54:40.197Z,28.00
2019-03-29T12:55:44.182Z,27.80
2019-03-29T12:56:46.843Z,27.20
2019-03-29T12:57:50.955Z,34.80
2019-03-29T12:58:53.039Z,34.40
2019-03-29T12:59:55.124Z,25.00
2019-03-29T13:00:57.030Z,20.20
2019-03-29T13:01:59.229Z,24.00
2019-03-29T13:03:01.642Z,21.80
2019-03-29T13:04:04.026Z,13.80
2019-03-29T13:05:06.699Z,24.00
2019-03-29T13:06:08.857Z,27.80
2019-03-29T13:07:10.635Z,23.80
2019-03-29T13:08:12.768Z,24.60
2019-03-29T13:09:15.101Z,26.40
2019-03-29T13:10:17.352Z,19.80
2019-03-29T13:11:19.485Z,26.40
2019-03-29T13:12:21.271Z,17.80
2019-03-29T13:13:23.422Z,24.40
2019-03-29T13:14:26.301Z,28.60
2019-03-29T13:15:28.342Z,27.00
2019-03-29T13:16:30.479Z,27.00
2019-03-29T13:17:32.767Z,21.80
2019-03-29T13:18:34.739Z,34.00
2019-03-29T13:19:36.908Z,31.80
2019-03-29T13:20:39.101Z,32.80
2019-03-29T13:21:41.303Z,31.40